sensor_id;sensor_type;location;lat;lon;timestamp;temperature;humidity
53599;DHT22;39485;45.702;11.364;2023-07-20T00:42:24;21.60;99.90
53599;DHT22;39485;45.702;11.364;2023-07-20T00:44:50;21.60;99.90
53599;DHT22;39485;45.702;11.364;2023-07-20T00:47:16;21.60;99.90
53599;DHT22;39485;45.702;11.364;2023-07-20T00:49:42;21.60;99.90
53599;DHT22;39485;45.702;11.364;2023-07-20T00:52:10;21.60;99.90
53599;DHT22;39485;45.702;11.364;2023-07-20T00:54:37;21.60;99.90
53599;DHT22;39485;45.702;11.364;2023-07-20T00:57:03;21.60;99.90
53599;DHT22;39485;45.702;11.364;2023-07-20T00:59:29;21.60;99.90
53599;DHT22;39485;45.702;11.364;2023-07-20T01:01:55;21.60;99.90
53599;DHT22;39485;45.702;11.364;2023-07-20T01:04:21;21.60;99.90
53599;DHT22;39485;45.702;11.364;2023-07-20T01:07:01;21.60;99.90
53599;DHT22;39485;45.702;11.364;2023-07-20T01:09:34;21.60;99.90
53599;DHT22;39485;45.702;11.364;2023-07-20T01:12:07;21.60;99.90
53599;DHT22;39485;45.702;11.364;2023-07-20T01:14:34;21.60;99.90
53599;DHT22;39485;45.702;11.364;2023-07-20T01:17:01;21.60;99.90
53599;DHT22;39485;45.702;11.364;2023-07-20T01:19:27;21.60;99.90
53599;DHT22;39485;45.702;11.364;2023-07-20T01:24:57;21.60;99.90
53599;DHT22;39485;45.702;11.364;2023-07-20T01:32:53;21.60;99.90
53599;DHT22;39485;45.702;11.364;2023-07-20T01:35:21;21.60;99.90
53599;DHT22;39485;45.702;11.364;2023-07-20T01:37:48;21.60;99.90
53599;DHT22;39485;45.702;11.364;2023-07-20T01:40:15;21.60;99.90
53599;DHT22;39485;45.702;11.364;2023-07-20T01:42:45;21.60;99.90
53599;DHT22;39485;45.702;11.364;2023-07-20T01:45:12;21.60;99.90
53599;DHT22;39485;45.702;11.364;2023-07-20T01:47:37;21.60;99.90
53599;DHT22;39485;45.702;11.364;2023-07-20T01:50:03;21.60;99.90
53599;DHT22;39485;45.702;11.364;2023-07-20T01:52:30;21.70;99.90
53599;DHT22;39485;45.702;11.364;2023-07-20T01:54:55;21.60;99.90
53599;DHT22;39485;45.702;11.364;2023-07-20T01:57:21;21.60;99.90
53599;DHT22;39485;45.702;11.364;2023-07-20T01:59:50;21.60;99.90
53599;DHT22;39485;45.702;11.364;2023-07-20T02:02:16;21.60;99.90
53599;DHT22;39485;45.702;11.364;2023-07-20T02:04:42;21.60;99.90
53599;DHT22;39485;45.702;11.364;2023-07-20T02:07:08;21.50;99.90
53599;DHT22;39485;45.702;11.364;2023-07-20T02:09:33;21.50;99.90
53599;DHT22;39485;45.702;11.364;2023-07-20T02:11:59;21.40;99.90
53599;DHT22;39485;45.702;11.364;2023-07-20T02:14:25;21.40;99.90
53599;DHT22;39485;45.702;11.364;2023-07-20T02:16:51;21.40;99.90
53599;DHT22;39485;45.702;11.364;2023-07-20T02:19:18;21.40;99.90
53599;DHT22;39485;45.702;11.364;2023-07-20T02:21:44;21.40;99.90
53599;DHT22;39485;45.702;11.364;2023-07-20T02:24:09;21.40;99.90
53599;DHT22;39485;45.702;11.364;2023-07-20T02:26:35;21.30;99.90
53599;DHT22;39485;45.702;11.364;2023-07-20T02:29:01;21.30;99.90
53599;DHT22;39485;45.702;11.364;2023-07-20T02:31:30;21.30;99.90
53599;DHT22;39485;45.702;11.364;2023-07-20T02:33:56;21.30;99.90
53599;DHT22;39485;45.702;11.364;2023-07-20T02:36:22;21.20;99.90
53599;DHT22;39485;45.702;11.364;2023-07-20T02:38:47;21.20;99.90
53599;DHT22;39485;45.702;11.364;2023-07-20T02:41:13;21.20;99.90
53599;DHT22;39485;45.702;11.364;2023-07-20T02:43:39;21.20;99.90
53599;DHT22;39485;45.702;11.364;2023-07-20T02:46:05;21.10;99.90
53599;DHT22;39485;45.702;11.364;2023-07-20T02:48:31;21.10;99.90
53599;DHT22;39485;45.702;11.364;2023-07-20T02:50:56;21.10;99.90
53599;DHT22;39485;45.702;11.364;2023-07-20T02:53:22;21.10;99.90
53599;DHT22;39485;45.702;11.364;2023-07-20T02:55:48;21.10;99.90
53599;DHT22;39485;45.702;11.364;2023-07-20T02:58:13;21.10;99.90
53599;DHT22;39485;45.702;11.364;2023-07-20T03:00:39;21.10;99.90
53599;DHT22;39485;45.702;11.364;2023-07-20T03:03:05;21.10;99.90
53599;DHT22;39485;45.702;11.364;2023-07-20T03:05:37;21.00;99.90
53599;DHT22;39485;45.702;11.364;2023-07-20T03:08:05;21.00;99.90
53599;DHT22;39485;45.702;11.364;2023-07-20T03:10:32;21.00;99.90
53599;DHT22;39485;45.702;11.364;2023-07-20T03:12:58;21.00;99.90
53599;DHT22;39485;45.702;11.364;2023-07-20T03:15:24;21.00;99.90
53599;DHT22;39485;45.702;11.364;2023-07-20T03:17:50;21.00;99.90
53599;DHT22;39485;45.702;11.364;2023-07-20T03:20:17;21.00;99.90
53599;DHT22;39485;45.702;11.364;2023-07-20T03:22:42;21.00;99.90
53599;DHT22;39485;45.702;11.364;2023-07-20T03:25:08;21.00;99.90
53599;DHT22;39485;45.702;11.364;2023-07-20T03:27:34;21.00;99.90
53599;DHT22;39485;45.702;11.364;2023-07-20T03:30:00;20.90;99.90
53599;DHT22;39485;45.702;11.364;2023-07-20T03:32:26;20.90;99.90
53599;DHT22;39485;45.702;11.364;2023-07-20T03:34:52;20.90;99.90
53599;DHT22;39485;45.702;11.364;2023-07-20T03:37:27;20.90;99.90
53599;DHT22;39485;45.702;11.364;2023-07-20T03:39:53;20.90;99.90
53599;DHT22;39485;45.702;11.364;2023-07-20T03:42:18;20.80;99.90
53599;DHT22;39485;45.702;11.364;2023-07-20T03:44:44;20.80;99.90
53599;DHT22;39485;45.702;11.364;2023-07-20T03:47:10;20.80;99.90
53599;DHT22;39485;45.702;11.364;2023-07-20T03:49:36;20.80;99.90
53599;DHT22;39485;45.702;11.364;2023-07-20T03:52:02;20.80;99.90
53599;DHT22;39485;45.702;11.364;2023-07-20T03:54:29;20.80;99.90
53599;DHT22;39485;45.702;11.364;2023-07-20T03:56:54;20.80;99.90
53599;DHT22;39485;45.702;11.364;2023-07-20T03:59:20;20.80;99.90
53599;DHT22;39485;45.702;11.364;2023-07-20T04:01:46;20.80;99.90
53599;DHT22;39485;45.702;11.364;2023-07-20T04:04:13;20.80;99.90
53599;DHT22;39485;45.702;11.364;2023-07-20T04:06:39;20.90;99.90
53599;DHT22;39485;45.702;11.364;2023-07-20T04:09:05;20.90;99.90
53599;DHT22;39485;45.702;11.364;2023-07-20T04:11:31;20.90;99.90
53599;DHT22;39485;45.702;11.364;2023-07-20T04:13:56;20.90;99.90
53599;DHT22;39485;45.702;11.364;2023-07-20T04:16:22;20.90;99.90
53599;DHT22;39485;45.702;11.364;2023-07-20T04:18:48;21.00;99.90
53599;DHT22;39485;45.702;11.364;2023-07-20T04:21:13;20.90;99.90
53599;DHT22;39485;45.702;11.364;2023-07-20T04:23:40;20.90;99.90
53599;DHT22;39485;45.702;11.364;2023-07-20T04:26:05;21.00;99.90
53599;DHT22;39485;45.702;11.364;2023-07-20T04:28:32;20.90;99.90
53599;DHT22;39485;45.702;11.364;2023-07-20T04:31:18;20.90;99.90
53599;DHT22;39485;45.702;11.364;2023-07-20T04:33:44;20.90;99.90
53599;DHT22;39485;45.702;11.364;2023-07-20T04:36:10;20.90;99.90
53599;DHT22;39485;45.702;11.364;2023-07-20T04:38:36;20.90;99.90
53599;DHT22;39485;45.702;11.364;2023-07-20T04:41:01;20.90;99.90
53599;DHT22;39485;45.702;11.364;2023-07-20T04:43:29;21.00;99.90
53599;DHT22;39485;45.702;11.364;2023-07-20T04:45:54;21.00;99.90
53599;DHT22;39485;45.702;11.364;2023-07-20T04:48:20;21.00;99.90
53599;DHT22;39485;45.702;11.364;2023-07-20T04:50:46;21.00;99.90
53599;DHT22;39485;45.702;11.364;2023-07-20T04:53:12;21.10;99.90
53599;DHT22;39485;45.702;11.364;2023-07-20T04:55:39;21.10;99.90
53599;DHT22;39485;45.702;11.364;2023-07-20T04:58:06;21.10;99.90
53599;DHT22;39485;45.702;11.364;2023-07-20T05:00:38;21.20;99.90
53599;DHT22;39485;45.702;11.364;2023-07-20T05:03:04;21.20;99.90
53599;DHT22;39485;45.702;11.364;2023-07-20T05:05:31;21.30;99.90
53599;DHT22;39485;45.702;11.364;2023-07-20T05:07:57;21.30;99.90
53599;DHT22;39485;45.702;11.364;2023-07-20T05:10:23;21.40;99.90
53599;DHT22;39485;45.702;11.364;2023-07-20T05:12:49;21.50;99.90
53599;DHT22;39485;45.702;11.364;2023-07-20T05:15:15;21.60;99.90
53599;DHT22;39485;45.702;11.364;2023-07-20T05:17:41;21.60;99.90
53599;DHT22;39485;45.702;11.364;2023-07-20T05:20:07;21.70;99.90
53599;DHT22;39485;45.702;11.364;2023-07-20T05:22:36;21.80;99.90
53599;DHT22;39485;45.702;11.364;2023-07-20T05:25:08;21.90;99.90
53599;DHT22;39485;45.702;11.364;2023-07-20T05:27:38;22.00;99.90
53599;DHT22;39485;45.702;11.364;2023-07-20T05:30:05;22.00;99.90
53599;DHT22;39485;45.702;11.364;2023-07-20T05:32:32;22.10;99.90
53599;DHT22;39485;45.702;11.364;2023-07-20T05:34:58;22.10;99.90
53599;DHT22;39485;45.702;11.364;2023-07-20T05:37:24;22.20;99.90
53599;DHT22;39485;45.702;11.364;2023-07-20T05:39:49;22.30;99.90
53599;DHT22;39485;45.702;11.364;2023-07-20T05:42:15;22.30;99.90
53599;DHT22;39485;45.702;11.364;2023-07-20T05:44:41;22.40;99.90
53599;DHT22;39485;45.702;11.364;2023-07-20T05:47:07;22.50;99.90
53599;DHT22;39485;45.702;11.364;2023-07-20T05:49:34;22.60;99.90
53599;DHT22;39485;45.702;11.364;2023-07-20T05:52:00;22.60;99.90
53599;DHT22;39485;45.702;11.364;2023-07-20T05:54:26;22.70;99.90
53599;DHT22;39485;45.702;11.364;2023-07-20T05:56:52;22.80;99.90
53599;DHT22;39485;45.702;11.364;2023-07-20T05:59:18;22.90;99.90
53599;DHT22;39485;45.702;11.364;2023-07-20T06:01:45;22.90;99.90
53599;DHT22;39485;45.702;11.364;2023-07-20T06:04:11;23.00;99.90
53599;DHT22;39485;45.702;11.364;2023-07-20T06:06:37;23.00;99.90
53599;DHT22;39485;45.702;11.364;2023-07-20T06:09:03;23.10;99.90
53599;DHT22;39485;45.702;11.364;2023-07-20T06:11:30;23.20;99.90
53599;DHT22;39485;45.702;11.364;2023-07-20T06:13:56;23.30;99.90
53599;DHT22;39485;45.702;11.364;2023-07-20T06:16:22;23.40;99.90
53599;DHT22;39485;45.702;11.364;2023-07-20T06:18:48;23.50;99.90
53599;DHT22;39485;45.702;11.364;2023-07-20T06:21:14;23.60;99.90
53599;DHT22;39485;45.702;11.364;2023-07-20T06:23:40;23.70;99.90
53599;DHT22;39485;45.702;11.364;2023-07-20T06:26:06;23.80;99.90
53599;DHT22;39485;45.702;11.364;2023-07-20T06:28:33;23.90;99.90
53599;DHT22;39485;45.702;11.364;2023-07-20T06:31:02;24.00;99.90
53599;DHT22;39485;45.702;11.364;2023-07-20T06:33:28;24.20;99.90
53599;DHT22;39485;45.702;11.364;2023-07-20T06:35:54;24.30;99.90
53599;DHT22;39485;45.702;11.364;2023-07-20T06:38:20;24.50;99.90
53599;DHT22;39485;45.702;11.364;2023-07-20T06:40:49;24.60;99.90
53599;DHT22;39485;45.702;11.364;2023-07-20T06:43:14;24.80;99.90
53599;DHT22;39485;45.702;11.364;2023-07-20T06:45:42;25.00;99.90
53599;DHT22;39485;45.702;11.364;2023-07-20T06:48:08;25.20;99.90
53599;DHT22;39485;45.702;11.364;2023-07-20T06:50:33;25.50;99.90
53599;DHT22;39485;45.702;11.364;2023-07-20T06:53:00;25.70;99.90
53599;DHT22;39485;45.702;11.364;2023-07-20T06:55:28;25.90;99.90
53599;DHT22;39485;45.702;11.364;2023-07-20T06:57:54;26.00;99.90
53599;DHT22;39485;45.702;11.364;2023-07-20T07:00:20;26.20;99.90
53599;DHT22;39485;45.702;11.364;2023-07-20T07:02:46;26.30;99.90
53599;DHT22;39485;45.702;11.364;2023-07-20T07:05:11;26.50;99.90
53599;DHT22;39485;45.702;11.364;2023-07-20T07:07:39;26.60;99.90
53599;DHT22;39485;45.702;11.364;2023-07-20T07:10:05;26.70;99.90
53599;DHT22;39485;45.702;11.364;2023-07-20T07:12:31;26.80;99.90
53599;DHT22;39485;45.702;11.364;2023-07-20T07:14:56;26.90;99.90
53599;DHT22;39485;45.702;11.364;2023-07-20T08:06:20;28.20;99.90
53599;DHT22;39485;45.702;11.364;2023-07-20T08:08:46;28.20;99.90
53599;DHT22;39485;45.702;11.364;2023-07-20T08:11:12;28.20;99.90
53599;DHT22;39485;45.702;11.364;2023-07-20T08:13:37;28.20;99.90
53599;DHT22;39485;45.702;11.364;2023-07-20T08:16:03;28.30;99.90
53599;DHT22;39485;45.702;11.364;2023-07-20T08:18:29;28.30;99.90
53599;DHT22;39485;45.702;11.364;2023-07-20T08:20:54;28.30;99.90
53599;DHT22;39485;45.702;11.364;2023-07-20T08:23:20;28.40;99.90
53599;DHT22;39485;45.702;11.364;2023-07-20T08:25:46;28.40;99.90
53599;DHT22;39485;45.702;11.364;2023-07-20T08:28:14;28.50;99.90
53599;DHT22;39485;45.702;11.364;2023-07-20T08:30:48;28.50;99.90
53599;DHT22;39485;45.702;11.364;2023-07-20T08:33:14;28.50;99.90
53599;DHT22;39485;45.702;11.364;2023-07-20T08:35:41;28.60;99.90
53599;DHT22;39485;45.702;11.364;2023-07-20T08:38:06;28.60;99.90
53599;DHT22;39485;45.702;11.364;2023-07-20T08:40:35;28.70;99.90
53599;DHT22;39485;45.702;11.364;2023-07-20T08:43:04;28.70;99.90
53599;DHT22;39485;45.702;11.364;2023-07-20T08:45:33;28.80;99.90
53599;DHT22;39485;45.702;11.364;2023-07-20T08:48:00;28.80;99.90
53599;DHT22;39485;45.702;11.364;2023-07-20T08:50:30;28.80;99.90
53599;DHT22;39485;45.702;11.364;2023-07-20T08:52:58;28.90;99.90
53599;DHT22;39485;45.702;11.364;2023-07-20T08:55:27;29.00;99.70
53599;DHT22;39485;45.702;11.364;2023-07-20T08:57:58;29.10;99.00
53599;DHT22;39485;45.702;11.364;2023-07-20T09:00:25;29.10;98.40
53599;DHT22;39485;45.702;11.364;2023-07-20T09:02:53;29.20;97.30
53599;DHT22;39485;45.702;11.364;2023-07-20T09:05:19;29.10;96.60
53599;DHT22;39485;45.702;11.364;2023-07-20T09:07:45;29.20;96.00
53599;DHT22;39485;45.702;11.364;2023-07-20T09:10:11;29.20;95.10
53599;DHT22;39485;45.702;11.364;2023-07-20T09:12:38;29.30;94.90
53599;DHT22;39485;45.702;11.364;2023-07-20T09:15:05;29.30;94.40
53599;DHT22;39485;45.702;11.364;2023-07-20T09:17:31;29.30;94.10
53599;DHT22;39485;45.702;11.364;2023-07-20T09:19:57;29.30;93.80
53599;DHT22;39485;45.702;11.364;2023-07-20T09:22:30;29.40;93.60
53599;DHT22;39485;45.702;11.364;2023-07-20T09:24:56;29.40;93.10
53599;DHT22;39485;45.702;11.364;2023-07-20T09:27:22;29.50;92.80
53599;DHT22;39485;45.702;11.364;2023-07-20T09:29:49;29.60;92.40
53599;DHT22;39485;45.702;11.364;2023-07-20T09:32:18;29.60;92.10
53599;DHT22;39485;45.702;11.364;2023-07-20T09:34:46;29.70;91.90
53599;DHT22;39485;45.702;11.364;2023-07-20T09:37:12;29.80;91.80
53599;DHT22;39485;45.702;11.364;2023-07-20T09:39:46;29.80;91.00
53599;DHT22;39485;45.702;11.364;2023-07-20T09:42:12;29.90;90.90
53599;DHT22;39485;45.702;11.364;2023-07-20T09:44:43;29.90;90.70
53599;DHT22;39485;45.702;11.364;2023-07-20T09:47:10;30.00;90.40
53599;DHT22;39485;45.702;11.364;2023-07-20T09:49:42;30.00;88.40
53599;DHT22;39485;45.702;11.364;2023-07-20T09:52:11;29.90;86.90
53599;DHT22;39485;45.702;11.364;2023-07-20T09:54:38;30.00;86.80
53599;DHT22;39485;45.702;11.364;2023-07-20T09:57:09;30.00;86.70
53599;DHT22;39485;45.702;11.364;2023-07-20T09:59:35;30.10;86.30
53599;DHT22;39485;45.702;11.364;2023-07-20T10:02:03;30.10;85.80
53599;DHT22;39485;45.702;11.364;2023-07-20T10:04:31;30.10;84.80
53599;DHT22;39485;45.702;11.364;2023-07-20T10:06:59;30.10;84.40
53599;DHT22;39485;45.702;11.364;2023-07-20T10:09:29;30.10;84.40
53599;DHT22;39485;45.702;11.364;2023-07-20T10:11:56;30.10;84.00
53599;DHT22;39485;45.702;11.364;2023-07-20T10:14:24;30.10;83.20
53599;DHT22;39485;45.702;11.364;2023-07-20T10:16:51;30.20;82.40
53599;DHT22;39485;45.702;11.364;2023-07-20T10:21:57;30.20;80.10
53599;DHT22;39485;45.702;11.364;2023-07-20T10:24:26;30.20;80.60
53599;DHT22;39485;45.702;11.364;2023-07-20T10:26:55;30.30;80.30
53599;DHT22;39485;45.702;11.364;2023-07-20T10:29:22;30.30;79.70
53599;DHT22;39485;45.702;11.364;2023-07-20T10:31:48;30.30;78.90
53599;DHT22;39485;45.702;11.364;2023-07-20T10:34:14;30.30;78.30
53599;DHT22;39485;45.702;11.364;2023-07-20T10:36:45;30.40;79.30
53599;DHT22;39485;45.702;11.364;2023-07-20T10:39:43;30.40;79.20
53599;DHT22;39485;45.702;11.364;2023-07-20T10:42:10;30.50;79.60
53599;DHT22;39485;45.702;11.364;2023-07-20T10:44:40;30.40;79.70
53599;DHT22;39485;45.702;11.364;2023-07-20T10:47:09;30.50;81.00
53599;DHT22;39485;45.702;11.364;2023-07-20T10:49:39;30.60;81.20
53599;DHT22;39485;45.702;11.364;2023-07-20T10:52:21;30.70;80.60
53599;DHT22;39485;45.702;11.364;2023-07-20T10:54:47;30.70;79.60
53599;DHT22;39485;45.702;11.364;2023-07-20T10:57:40;30.60;79.10
53599;DHT22;39485;45.702;11.364;2023-07-20T11:00:13;30.70;78.60
53599;DHT22;39485;45.702;11.364;2023-07-20T11:02:49;30.70;78.40
53599;DHT22;39485;45.702;11.364;2023-07-20T11:05:34;30.80;78.20
53599;DHT22;39485;45.702;11.364;2023-07-20T11:08:02;30.80;77.90
53599;DHT22;39485;45.702;11.364;2023-07-20T11:10:28;30.80;78.30
53599;DHT22;39485;45.702;11.364;2023-07-20T11:13:32;30.80;78.40
53599;DHT22;39485;45.702;11.364;2023-07-20T11:18:28;30.90;78.30
53599;DHT22;39485;45.702;11.364;2023-07-20T11:20:54;30.80;78.30
53599;DHT22;39485;45.702;11.364;2023-07-20T11:23:20;30.90;78.00
53599;DHT22;39485;45.702;11.364;2023-07-20T11:25:46;30.90;77.80
53599;DHT22;39485;45.702;11.364;2023-07-20T11:30:45;30.90;76.80
53599;DHT22;39485;45.702;11.364;2023-07-20T11:33:15;30.90;76.30
53599;DHT22;39485;45.702;11.364;2023-07-20T11:35:45;31.00;75.90
53599;DHT22;39485;45.702;11.364;2023-07-20T11:38:13;31.00;74.90
53599;DHT22;39485;45.702;11.364;2023-07-20T11:40:44;30.90;73.50
53599;DHT22;39485;45.702;11.364;2023-07-20T11:43:13;31.00;73.70
53599;DHT22;39485;45.702;11.364;2023-07-20T11:45:39;31.00;73.50
53599;DHT22;39485;45.702;11.364;2023-07-20T11:48:06;31.00;72.90
53599;DHT22;39485;45.702;11.364;2023-07-20T11:50:31;31.00;72.40
53599;DHT22;39485;45.702;11.364;2023-07-20T11:52:57;31.10;72.10
53599;DHT22;39485;45.702;11.364;2023-07-20T11:55:23;31.10;71.80
53599;DHT22;39485;45.702;11.364;2023-07-20T11:58:05;31.10;70.20
53599;DHT22;39485;45.702;11.364;2023-07-20T12:00:32;31.10;70.00
53599;DHT22;39485;45.702;11.364;2023-07-20T12:02:59;31.10;70.30
53599;DHT22;39485;45.702;11.364;2023-07-20T12:05:25;31.20;70.80
53599;DHT22;39485;45.702;11.364;2023-07-20T12:07:52;31.20;70.70
53599;DHT22;39485;45.702;11.364;2023-07-20T12:10:24;31.30;70.50
53599;DHT22;39485;45.702;11.364;2023-07-20T12:12:51;31.30;70.30
53599;DHT22;39485;45.702;11.364;2023-07-20T12:15:23;31.40;70.20
53599;DHT22;39485;45.702;11.364;2023-07-20T12:17:53;31.40;70.40
53599;DHT22;39485;45.702;11.364;2023-07-20T12:20:35;31.40;70.30
53599;DHT22;39485;45.702;11.364;2023-07-20T12:23:04;31.50;70.40
53599;DHT22;39485;45.702;11.364;2023-07-20T12:25:46;31.50;70.30
53599;DHT22;39485;45.702;11.364;2023-07-20T12:28:17;31.50;71.00
53599;DHT22;39485;45.702;11.364;2023-07-20T12:30:44;31.50;71.20
53599;DHT22;39485;45.702;11.364;2023-07-20T12:33:10;31.60;70.80
53599;DHT22;39485;45.702;11.364;2023-07-20T12:35:37;31.50;70.80
53599;DHT22;39485;45.702;11.364;2023-07-20T12:38:03;31.50;71.10
53599;DHT22;39485;45.702;11.364;2023-07-20T12:40:46;31.60;71.20
53599;DHT22;39485;45.702;11.364;2023-07-20T12:43:57;31.60;71.20
53599;DHT22;39485;45.702;11.364;2023-07-20T12:46:52;31.50;70.40
53599;DHT22;39485;45.702;11.364;2023-07-20T12:49:21;31.60;70.40
53599;DHT22;39485;45.702;11.364;2023-07-20T12:51:55;31.50;70.30
53599;DHT22;39485;45.702;11.364;2023-07-20T12:54:24;31.50;70.30
53599;DHT22;39485;45.702;11.364;2023-07-20T12:57:24;31.50;70.40
53599;DHT22;39485;45.702;11.364;2023-07-20T13:00:27;31.50;71.00
53599;DHT22;39485;45.702;11.364;2023-07-20T13:12:54;31.40;71.30
53599;DHT22;39485;45.702;11.364;2023-07-20T13:18:34;31.40;71.70
53599;DHT22;39485;45.702;11.364;2023-07-20T13:21:00;31.40;72.10
53599;DHT22;39485;45.702;11.364;2023-07-20T13:23:26;31.30;72.30
53599;DHT22;39485;45.702;11.364;2023-07-20T13:25:51;31.40;72.60
53599;DHT22;39485;45.702;11.364;2023-07-20T13:28:17;31.40;72.30
53599;DHT22;39485;45.702;11.364;2023-07-20T13:31:03;31.40;72.60
53599;DHT22;39485;45.702;11.364;2023-07-20T17:04:18;30.70;71.30
53599;DHT22;39485;45.702;11.364;2023-07-20T17:06:47;30.70;71.70
53599;DHT22;39485;45.702;11.364;2023-07-20T17:09:14;30.70;71.80
53599;DHT22;39485;45.702;11.364;2023-07-20T17:11:40;30.80;72.00
53599;DHT22;39485;45.702;11.364;2023-07-20T17:14:07;30.70;72.00
53599;DHT22;39485;45.702;11.364;2023-07-20T17:16:33;30.80;72.10
53599;DHT22;39485;45.702;11.364;2023-07-20T17:19:00;31.10;72.00
53599;DHT22;39485;45.702;11.364;2023-07-20T17:21:25;31.40;71.40
53599;DHT22;39485;45.702;11.364;2023-07-20T17:23:53;31.80;71.50
53599;DHT22;39485;45.702;11.364;2023-07-20T17:26:19;32.80;70.60
53599;DHT22;39485;45.702;11.364;2023-07-20T17:28:44;33.90;69.10
53599;DHT22;39485;45.702;11.364;2023-07-20T17:31:19;34.90;67.70
53599;DHT22;39485;45.702;11.364;2023-07-20T17:33:46;35.70;66.60
53599;DHT22;39485;45.702;11.364;2023-07-20T17:36:17;36.40;65.60
53599;DHT22;39485;45.702;11.364;2023-07-20T17:45:54;35.50;64.40
53599;DHT22;39485;45.702;11.364;2023-07-20T17:48:22;34.40;67.20
53599;DHT22;39485;45.702;11.364;2023-07-20T17:50:48;33.70;68.70
53599;DHT22;39485;45.702;11.364;2023-07-20T17:53:14;33.10;70.20
53599;DHT22;39485;45.702;11.364;2023-07-20T17:55:41;32.50;71.50
53599;DHT22;39485;45.702;11.364;2023-07-20T17:58:09;32.00;72.60
53599;DHT22;39485;45.702;11.364;2023-07-20T18:00:35;31.50;73.70
53599;DHT22;39485;45.702;11.364;2023-07-20T18:03:01;31.20;74.80
53599;DHT22;39485;45.702;11.364;2023-07-20T18:05:28;30.90;75.70
53599;DHT22;39485;45.702;11.364;2023-07-20T18:07:55;30.60;76.70
53599;DHT22;39485;45.702;11.364;2023-07-20T18:10:28;30.40;77.40
53599;DHT22;39485;45.702;11.364;2023-07-20T18:12:54;30.10;78.00
53599;DHT22;39485;45.702;11.364;2023-07-20T18:15:20;29.90;78.80
53599;DHT22;39485;45.702;11.364;2023-07-20T18:17:46;29.70;79.40
53599;DHT22;39485;45.702;11.364;2023-07-20T18:20:13;29.60;80.00
53599;DHT22;39485;45.702;11.364;2023-07-20T18:22:40;29.40;80.50
53599;DHT22;39485;45.702;11.364;2023-07-20T18:25:09;29.30;81.00
53599;DHT22;39485;45.702;11.364;2023-07-20T18:27:35;29.10;81.50
53599;DHT22;39485;45.702;11.364;2023-07-20T18:30:04;28.90;82.00
53599;DHT22;39485;45.702;11.364;2023-07-20T18:32:30;28.80;82.60
53599;DHT22;39485;45.702;11.364;2023-07-20T18:34:56;28.60;83.20
53599;DHT22;39485;45.702;11.364;2023-07-20T18:37:21;28.50;83.80
53599;DHT22;39485;45.702;11.364;2023-07-20T18:39:49;28.40;84.40
53599;DHT22;39485;45.702;11.364;2023-07-20T18:42:15;28.20;85.00
53599;DHT22;39485;45.702;11.364;2023-07-20T18:44:43;28.00;85.60
53599;DHT22;39485;45.702;11.364;2023-07-20T18:47:09;28.00;86.10
53599;DHT22;39485;45.702;11.364;2023-07-20T18:49:35;27.80;86.50
53599;DHT22;39485;45.702;11.364;2023-07-20T18:52:04;27.70;86.90
53599;DHT22;39485;45.702;11.364;2023-07-20T18:54:30;27.60;87.20
53599;DHT22;39485;45.702;11.364;2023-07-20T18:56:56;27.50;87.60
53599;DHT22;39485;45.702;11.364;2023-07-20T18:59:22;27.40;88.00
53599;DHT22;39485;45.702;11.364;2023-07-20T19:01:48;27.30;88.40
53599;DHT22;39485;45.702;11.364;2023-07-20T19:04:14;27.30;88.90
53599;DHT22;39485;45.702;11.364;2023-07-20T19:06:43;27.20;89.30
53599;DHT22;39485;45.702;11.364;2023-07-20T19:09:08;27.10;89.70
53599;DHT22;39485;45.702;11.364;2023-07-20T19:11:34;27.10;90.00
53599;DHT22;39485;45.702;11.364;2023-07-20T19:14:00;26.90;90.10
53599;DHT22;39485;45.702;11.364;2023-07-20T19:16:25;26.90;90.30
53599;DHT22;39485;45.702;11.364;2023-07-20T19:18:52;26.80;90.50
53599;DHT22;39485;45.702;11.364;2023-07-20T19:21:20;26.70;90.60
53599;DHT22;39485;45.702;11.364;2023-07-20T19:23:46;26.60;90.80
53599;DHT22;39485;45.702;11.364;2023-07-20T19:26:12;26.60;90.90
53599;DHT22;39485;45.702;11.364;2023-07-20T19:28:37;26.50;91.10
53599;DHT22;39485;45.702;11.364;2023-07-20T19:31:03;26.40;91.30
53599;DHT22;39485;45.702;11.364;2023-07-20T19:33:30;26.30;91.60
53599;DHT22;39485;45.702;11.364;2023-07-20T19:35:57;26.20;91.90
53599;DHT22;39485;45.702;11.364;2023-07-20T19:38:26;26.20;92.10
53599;DHT22;39485;45.702;11.364;2023-07-20T19:40:53;26.10;92.20
53599;DHT22;39485;45.702;11.364;2023-07-20T19:43:22;26.00;92.30
53599;DHT22;39485;45.702;11.364;2023-07-20T19:45:48;26.00;92.40
53599;DHT22;39485;45.702;11.364;2023-07-20T19:48:15;25.90;92.60
53599;DHT22;39485;45.702;11.364;2023-07-20T19:50:48;25.80;92.90
53599;DHT22;39485;45.702;11.364;2023-07-20T19:53:18;25.80;93.10
53599;DHT22;39485;45.702;11.364;2023-07-20T19:55:44;25.70;93.40
53599;DHT22;39485;45.702;11.364;2023-07-20T19:58:10;25.70;93.60
53599;DHT22;39485;45.702;11.364;2023-07-20T20:00:42;25.60;93.80
53599;DHT22;39485;45.702;11.364;2023-07-20T20:03:09;25.50;94.00
53599;DHT22;39485;45.702;11.364;2023-07-20T20:05:35;25.50;94.20
53599;DHT22;39485;45.702;11.364;2023-07-20T20:08:02;25.40;94.30
53599;DHT22;39485;45.702;11.364;2023-07-20T20:10:32;25.30;94.50
53599;DHT22;39485;45.702;11.364;2023-07-20T20:12:59;25.30;94.70
53599;DHT22;39485;45.702;11.364;2023-07-20T20:15:25;25.20;94.90
53599;DHT22;39485;45.702;11.364;2023-07-20T20:18:10;25.20;95.30
53599;DHT22;39485;45.702;11.364;2023-07-20T20:20:54;25.10;95.60
53599;DHT22;39485;45.702;11.364;2023-07-20T20:27:23;25.00;96.10
53599;DHT22;39485;45.702;11.364;2023-07-20T20:29:54;25.00;96.30
53599;DHT22;39485;45.702;11.364;2023-07-20T20:32:23;24.90;96.50
53599;DHT22;39485;45.702;11.364;2023-07-20T20:40:45;24.90;97.40
53599;DHT22;39485;45.702;11.364;2023-07-20T20:43:27;24.80;97.70
53599;DHT22;39485;45.702;11.364;2023-07-20T20:46:03;24.80;98.10
53599;DHT22;39485;45.702;11.364;2023-07-20T20:55:50;24.70;99.40
53599;DHT22;39485;45.702;11.364;2023-07-20T20:58:22;24.60;99.90
53599;DHT22;39485;45.702;11.364;2023-07-20T21:01:05;24.60;99.90
53599;DHT22;39485;45.702;11.364;2023-07-20T21:03:53;24.50;99.90
53599;DHT22;39485;45.702;11.364;2023-07-20T21:06:19;24.50;99.90
53599;DHT22;39485;45.702;11.364;2023-07-20T21:08:49;24.50;99.90
53599;DHT22;39485;45.702;11.364;2023-07-20T21:11:42;24.40;99.90
53599;DHT22;39485;45.702;11.364;2023-07-20T21:14:08;24.40;99.90
53599;DHT22;39485;45.702;11.364;2023-07-20T21:16:34;24.30;99.90